createdAt,value
2022-07-28T00:00:43.965Z,101069.44
2022-07-28T00:03:10.473Z,101065.06
2022-07-28T00:05:36.994Z,101067.75
2022-07-28T00:08:03.857Z,101068.75
2022-07-28T00:10:32.151Z,101064.56
2022-07-28T00:12:59.899Z,101070.63
2022-07-28T00:15:27.439Z,101065.41
2022-07-28T00:17:53.977Z,101066.22
2022-07-28T00:20:20.999Z,101066.22
2022-07-28T00:22:47.534Z,101061.00
2022-07-28T00:25:15.174Z,101061.00
2022-07-28T00:27:41.715Z,101066.38
2022-07-28T00:30:10.012Z,101062.03
2022-07-28T00:32:37.598Z,101066.56
2022-07-28T00:35:04.893Z,101064.72
2022-07-28T00:37:34.682Z,101059.34
2022-07-28T00:40:01.325Z,101065.72
2022-07-28T00:42:27.771Z,101064.88
2022-07-28T00:44:54.239Z,101060.13
2022-07-28T00:47:20.752Z,101057.97
2022-07-28T00:49:48.292Z,101066.03
2022-07-28T00:52:18.171Z,101075.13
2022-07-28T00:54:44.736Z,101069.06
2022-07-28T00:57:11.187Z,101073.44
2022-07-28T00:59:37.707Z,101066.38
2022-07-28T01:02:05.254Z,101074.44
2022-07-28T01:04:32.163Z,101070.06
2022-07-28T01:07:10.663Z,101075.44
2022-07-28T01:10:06.307Z,101079.16
2022-07-28T01:12:32.708Z,101080.13
2022-07-28T01:15:34.621Z,101081.16
2022-07-28T01:18:06.708Z,101089.22
2022-07-28T01:20:41.738Z,101071.34
2022-07-28T01:23:32.798Z,101090.22
2022-07-28T01:26:34.580Z,101088.53
2022-07-28T01:29:21.762Z,101082.41
2022-07-28T01:32:01.289Z,101094.91
2022-07-28T01:34:33.487Z,101094.91
2022-07-28T01:37:10.143Z,101092.41
2022-07-28T01:39:39.644Z,101086.19
2022-07-28T01:42:08.919Z,101100.63
2022-07-28T01:44:41.180Z,101106.00
2022-07-28T01:47:09.235Z,101100.94
2022-07-28T01:49:36.988Z,101098.91
2022-07-28T01:52:08.171Z,101039.25
2022-07-28T01:54:38.785Z,101093.69
2022-07-28T01:57:10.873Z,101095.56
2022-07-28T01:59:39.879Z,101098.25
2022-07-28T02:02:08.887Z,101101.91
2022-07-28T02:04:39.497Z,101094.88
2022-07-28T02:07:08.373Z,101059.00
2022-07-28T02:09:35.519Z,101101.09
2022-07-28T02:12:04.470Z,101092.19
2022-07-28T02:14:32.906Z,101098.53
2022-07-28T02:17:07.863Z,101097.72
2022-07-28T02:19:35.951Z,101007.03
2022-07-28T02:22:04.886Z,101089.59
2022-07-28T02:24:32.768Z,101081.03
2022-07-28T02:27:03.979Z,101096.19
2022-07-28T02:29:50.779Z,101100.53
2022-07-28T02:32:25.247Z,101105.25
2022-07-28T02:35:00.722Z,101093.13
2022-07-28T02:37:34.816Z,101107.94
2022-07-28T02:40:03.476Z,101100.03
2022-07-28T02:42:33.313Z,101111.63
2022-07-28T02:45:02.913Z,101112.63
2022-07-28T02:47:35.002Z,101119.84
2022-07-28T02:50:04.084Z,101102.16
2022-07-28T02:52:32.858Z,101113.09
2022-07-28T02:55:02.250Z,101093.19
2022-07-28T02:57:30.600Z,101117.31
2022-07-28T02:59:57.516Z,101107.56
2022-07-28T03:02:24.586Z,101117.50
2022-07-28T03:04:59.343Z,101108.59
2022-07-28T03:07:30.549Z,101120.34
2022-07-28T03:09:58.287Z,101115.97
2022-07-28T03:12:26.335Z,101120.50
2022-07-28T03:14:52.859Z,101119.66
2022-07-28T03:17:19.521Z,101119.13
2022-07-28T03:19:46.075Z,101102.78
2022-07-28T03:22:12.770Z,101095.22
2022-07-28T03:24:44.384Z,101120.13
2022-07-28T03:27:34.441Z,101111.91
2022-07-28T03:30:04.323Z,101111.91
2022-07-28T03:32:34.322Z,101123.66
2022-07-28T03:35:01.263Z,101064.00
2022-07-28T03:37:59.858Z,101048.81
2022-07-28T03:40:29.759Z,101127.38
2022-07-28T03:42:57.835Z,101125.66
2022-07-28T03:45:24.872Z,101104.91
2022-07-28T03:47:55.688Z,101131.03
2022-07-28T03:50:24.425Z,101129.38
2022-07-28T03:52:51.436Z,101118.88
2022-07-28T03:55:18.636Z,101136.75
2022-07-28T03:57:45.864Z,101099.34
2022-07-28T04:00:14.271Z,101129.66
2022-07-28T04:02:46.554Z,101128.69
2022-07-28T04:05:15.180Z,101125.16
2022-07-28T04:07:41.938Z,101111.13
2022-07-28T04:10:11.301Z,101135.91
2022-07-28T04:12:57.213Z,101125.94
2022-07-28T04:15:25.131Z,101140.41
2022-07-28T04:17:52.846Z,101140.41
2022-07-28T04:20:21.055Z,101140.59
2022-07-28T04:22:48.422Z,101140.59
2022-07-28T04:25:16.578Z,101144.28
2022-07-28T04:27:43.493Z,101140.75
2022-07-28T04:30:13.297Z,101140.75
2022-07-28T04:32:40.945Z,101139.91
2022-07-28T04:35:08.865Z,101141.06
2022-07-28T04:37:35.686Z,101142.75
2022-07-28T04:40:02.807Z,101148.97
2022-07-28T04:42:29.293Z,101162.56
2022-07-28T04:44:56.143Z,101156.19
2022-07-28T04:47:24.395Z,101157.19
2022-07-28T04:49:52.673Z,101156.34
2022-07-28T04:52:19.967Z,101161.72
2022-07-28T04:54:46.428Z,101160.03
2022-07-28T04:57:12.978Z,101165.56
2022-07-28T04:59:41.168Z,101161.03
2022-07-28T05:02:08.121Z,101169.94
2022-07-28T05:04:34.885Z,101177.16
2022-07-28T05:07:01.763Z,101177.31
2022-07-28T05:09:34.560Z,101177.16
2022-07-28T05:12:01.029Z,101180.84
2022-07-28T05:14:27.482Z,101177.63
2022-07-28T05:16:53.986Z,101173.75
2022-07-28T05:19:20.495Z,101196.13
2022-07-28T05:21:46.959Z,101169.81
2022-07-28T05:24:14.308Z,101194.44
2022-07-28T05:26:41.120Z,101193.59
2022-07-28T05:29:07.802Z,101195.44
2022-07-28T05:31:34.359Z,101202.50
2022-07-28T05:34:00.875Z,101195.44
2022-07-28T05:36:27.650Z,101196.63
2022-07-28T05:38:54.459Z,101201.13
2022-07-28T05:41:20.906Z,101206.19
2022-07-28T05:43:47.347Z,101197.59
2022-07-28T05:46:13.920Z,101182.75
2022-07-28T05:48:40.530Z,101201.81
2022-07-28T05:51:07.078Z,101185.09
2022-07-28T05:53:33.564Z,101210.06
2022-07-28T05:56:01.748Z,101203.97
2022-07-28T05:58:29.756Z,101210.06
2022-07-28T06:00:59.964Z,101218.94
2022-07-28T06:03:26.519Z,101214.75
2022-07-28T06:06:14.153Z,101224.31
2022-07-28T06:08:42.322Z,101226.88
2022-07-28T06:11:17.862Z,101167.75
2022-07-28T06:13:49.667Z,101230.69
2022-07-28T06:16:16.232Z,101237.91
2022-07-28T06:18:43.982Z,101232.03
2022-07-28T06:21:10.917Z,101206.69
2022-07-28T06:23:37.420Z,101214.44
2022-07-28T06:26:03.891Z,101235.53
2022-07-28T06:28:30.401Z,101232.69
2022-07-28T06:30:57.036Z,101216.81
2022-07-28T06:33:23.665Z,101238.06
2022-07-28T06:35:51.417Z,101230.00
2022-07-28T06:38:20.373Z,101231.84
2022-07-28T06:40:49.832Z,101231.16
2022-07-28T06:43:16.361Z,101233.69
2022-07-28T06:45:44.945Z,101225.25
2022-07-28T06:48:13.629Z,101231.84
2022-07-28T06:50:41.011Z,101229.16
2022-07-28T06:53:07.599Z,101236.38
2022-07-28T06:55:35.782Z,101241.75
2022-07-28T06:58:03.686Z,101239.91
2022-07-28T07:00:30.644Z,101235.13
2022-07-28T07:02:57.396Z,101238.22
2022-07-28T07:05:24.027Z,101245.28
2022-07-28T07:07:50.498Z,101241.75
2022-07-28T07:10:17.175Z,101246.97
2022-07-28T07:12:43.689Z,101223.56
2022-07-28T07:15:10.910Z,101246.13
2022-07-28T07:17:37.679Z,101254.19
2022-07-28T07:20:06.718Z,101235.31
2022-07-28T07:22:33.249Z,101246.75
2022-07-28T07:25:09.085Z,101254.88
2022-07-28T07:27:35.579Z,101250.28
2022-07-28T07:30:02.544Z,101255.03
2022-07-28T07:32:29.052Z,101263.09
2022-07-28T07:34:55.501Z,101256.88
2022-07-28T07:37:22.207Z,101258.72
2022-07-28T07:39:48.631Z,101272.97
2022-07-28T07:42:15.094Z,101204.28
2022-07-28T07:44:41.604Z,101257.78
2022-07-28T07:47:16.603Z,101263.94
2022-07-28T07:49:45.950Z,101270.16
2022-07-28T07:52:13.658Z,101255.81
2022-07-28T07:54:40.167Z,101271.00
2022-07-28T07:57:06.664Z,101201.75
2022-07-28T07:59:33.115Z,101273.84
2022-07-28T08:02:00.695Z,101267.59
2022-07-28T08:04:28.597Z,101265.09
2022-07-28T08:06:55.388Z,101276.53
2022-07-28T08:09:24.803Z,101269.31
2022-07-28T08:11:51.262Z,101271.16
2022-07-28T08:14:18.296Z,101275.66
2022-07-28T08:16:45.136Z,101279.22
2022-07-28T08:19:11.640Z,101289.09
2022-07-28T08:21:38.758Z,101263.34
2022-07-28T08:24:05.585Z,101282.75
2022-07-28T08:26:32.205Z,101285.75
2022-07-28T08:28:58.760Z,101292.50
2022-07-28T08:31:27.377Z,101292.66
2022-07-28T08:33:55.007Z,101266.88
2022-07-28T08:36:22.203Z,101287.28
2022-07-28T08:38:48.760Z,101293.50
2022-07-28T08:41:51.219Z,101301.56
2022-07-28T08:44:21.867Z,101273.88
2022-07-28T08:46:49.296Z,101264.66
2022-07-28T08:49:16.648Z,101294.47
2022-07-28T08:51:47.141Z,101289.09
2022-07-28T08:54:17.526Z,101292.81
2022-07-28T08:56:48.101Z,101290.81
2022-07-28T08:59:15.171Z,101280.69
2022-07-28T09:01:42.277Z,101274.59
2022-07-28T09:04:09.559Z,101301.25
2022-07-28T09:06:41.950Z,101296.56
2022-07-28T09:09:09.888Z,101294.56
2022-07-28T09:11:37.870Z,101272.63
2022-07-28T09:14:05.392Z,101295.25
2022-07-28T09:16:32.403Z,101296.09
2022-07-28T09:18:58.986Z,101297.94
2022-07-28T09:21:25.615Z,101300.63
2022-07-28T09:23:52.178Z,101298.97
2022-07-28T09:26:19.005Z,101286.06
2022-07-28T09:28:49.420Z,101298.09
2022-07-28T09:31:17.330Z,101302.63
2022-07-28T09:34:04.828Z,101308.00
2022-07-28T09:36:39.271Z,101318.75
2022-07-28T09:39:05.894Z,101287.06
2022-07-28T09:41:57.895Z,101315.09
2022-07-28T09:44:28.816Z,101315.09
2022-07-28T09:46:56.424Z,101319.44
2022-07-28T09:49:41.029Z,101306.94
2022-07-28T09:52:09.624Z,101313.09
2022-07-28T09:54:40.546Z,101317.44
2022-07-28T09:57:11.265Z,101307.53
2022-07-28T09:59:42.688Z,101318.16
2022-07-28T10:02:12.793Z,101322.53
2022-07-28T10:04:41.412Z,101312.75
2022-07-28T10:07:17.203Z,101327.91
2022-07-28T10:09:55.018Z,101328.75
2022-07-28T10:12:27.237Z,101319.84
2022-07-28T10:14:55.589Z,101313.47
2022-07-28T10:17:28.779Z,101315.31
2022-07-28T10:20:03.615Z,101316.28
2022-07-28T10:22:33.661Z,101305.31
2022-07-28T10:25:09.734Z,101314.00
2022-07-28T10:27:39.300Z,101319.38
2022-07-28T10:30:06.554Z,101321.91
2022-07-28T10:32:38.343Z,101310.09
2022-07-28T10:35:08.741Z,101330.97
2022-07-28T10:37:43.335Z,101314.31
2022-07-28T10:40:11.715Z,101323.75
2022-07-28T10:42:41.473Z,101321.91
2022-07-28T10:45:10.981Z,101293.03
2022-07-28T10:47:37.452Z,101321.75
2022-07-28T10:50:04.937Z,101198.59
2022-07-28T10:52:50.639Z,101305.41
2022-07-28T10:55:20.371Z,101323.41
2022-07-28T10:58:12.004Z,101335.88
2022-07-28T11:01:04.681Z,101326.81
2022-07-28T11:03:43.994Z,101298.63
2022-07-28T11:06:37.042Z,101323.97
2022-07-28T11:09:15.321Z,101321.97
2022-07-28T11:11:44.897Z,101321.00
2022-07-28T11:14:26.363Z,101308.53
2022-07-28T11:17:14.782Z,101316.59
2022-07-28T11:20:07.188Z,101317.44
2022-07-28T11:22:32.769Z,101319.28
2022-07-28T11:25:19.610Z,101322.81
2022-07-28T11:27:51.153Z,101312.75
2022-07-28T11:30:33.288Z,101309.22
2022-07-28T11:33:00.970Z,101325.34
2022-07-28T11:35:31.756Z,101320.81
2022-07-28T11:38:01.028Z,101316.97
2022-07-28T11:40:39.215Z,101317.34
2022-07-28T11:43:22.207Z,101317.34
2022-07-28T11:46:12.512Z,101316.66
2022-07-28T11:48:41.601Z,101314.97
2022-07-28T11:51:10.217Z,101312.28
2022-07-28T11:53:46.579Z,101309.44
2022-07-28T11:56:15.182Z,101311.44
2022-07-28T11:58:43.122Z,101314.66
2022-07-28T12:01:19.364Z,101319.88
2022-07-28T12:03:50.311Z,101318.06
2022-07-28T12:06:28.842Z,101314.50
2022-07-28T12:09:00.279Z,101310.97
2022-07-28T12:11:38.154Z,101316.19
2022-07-28T12:14:13.404Z,101306.13
2022-07-28T12:16:43.400Z,101308.81
2022-07-28T12:19:11.495Z,101312.50
2022-07-28T12:21:50.299Z,101311.50
2022-07-28T12:24:27.863Z,101308.69
2022-07-28T12:26:54.983Z,101309.41
2022-07-28T12:29:21.787Z,101282.69
2022-07-28T12:31:59.100Z,101307.53
2022-07-28T12:34:28.754Z,101310.59
2022-07-28T12:36:57.978Z,101307.91
2022-07-28T12:39:26.003Z,101309.44
2022-07-28T12:42:10.207Z,101303.91
2022-07-28T12:44:40.237Z,101302.88
2022-07-28T12:47:09.345Z,101298.19
2022-07-28T12:49:37.481Z,101305.44
2022-07-28T12:52:24.520Z,101302.44
2022-07-28T12:54:55.596Z,101301.44
2022-07-28T12:57:48.803Z,101306.47
2022-07-28T13:00:19.480Z,101305.78
2022-07-28T13:02:46.507Z,101295.34
2022-07-28T13:06:02.778Z,101301.97
2022-07-28T13:08:47.586Z,101313.09
2022-07-28T13:11:43.301Z,101310.75
2022-07-28T13:14:02.529Z,101295.28
2022-07-28T13:16:29.985Z,101297.00
2022-07-28T13:19:03.851Z,101291.63
2022-07-28T13:21:56.953Z,101297.16
2022-07-28T13:24:25.666Z,101290.78
2022-07-28T13:26:52.193Z,101287.22
2022-07-28T13:29:19.682Z,101293.63
2022-07-28T13:31:46.277Z,101270.16
2022-07-28T13:34:13.148Z,101292.94
2022-07-28T13:36:39.895Z,101253.78
2022-07-28T13:39:07.147Z,101272.19
2022-07-28T13:41:57.465Z,101244.72
2022-07-28T13:44:20.187Z,101279.00
2022-07-28T13:46:47.416Z,101283.22
2022-07-28T13:49:16.737Z,101220.78
2022-07-28T13:51:43.381Z,101263.63
2022-07-28T13:54:09.852Z,101283.91
2022-07-28T13:56:40.710Z,101284.59
2022-07-28T13:59:08.880Z,101274.66
2022-07-28T14:01:36.219Z,101276.88
2022-07-28T14:04:04.401Z,101276.38
2022-07-28T14:06:34.109Z,101275.06
2022-07-28T14:09:01.139Z,101271.03
2022-07-28T14:11:30.908Z,101284.34
2022-07-28T14:14:02.767Z,101274.25
2022-07-28T14:16:31.875Z,101275.97
2022-07-28T14:18:58.682Z,101283.72
2022-07-28T14:21:25.137Z,101279.03
2022-07-28T14:23:51.727Z,101261.66
2022-07-28T14:26:35.407Z,101274.00
2022-07-28T14:29:03.577Z,101277.53
2022-07-28T14:31:38.037Z,101274.84
2022-07-28T14:34:04.548Z,101276.53
2022-07-28T14:36:31.575Z,101254.59
2022-07-28T14:38:58.163Z,101266.41
2022-07-28T14:41:25.770Z,101284.44
2022-07-28T14:43:52.962Z,101278.53
2022-07-28T14:46:21.693Z,101277.38
2022-07-28T14:48:48.460Z,101274.53
2022-07-28T14:51:15.009Z,101273.50
2022-07-28T14:53:46.416Z,101276.03
2022-07-28T14:56:18.448Z,101275.22
2022-07-28T14:58:44.978Z,101273.34
2022-07-28T15:01:11.451Z,101262.53
2022-07-28T15:03:37.933Z,101267.97
2022-07-28T15:06:09.918Z,101276.03
2022-07-28T15:08:36.414Z,101267.28
2022-07-28T15:11:03.182Z,101245.56
2022-07-28T15:13:29.699Z,101265.47
2022-07-28T15:15:56.895Z,101255.19
2022-07-28T15:18:24.403Z,101267.81
2022-07-28T15:20:51.124Z,101278.28
2022-07-28T15:23:18.331Z,101276.41
2022-07-28T15:25:46.859Z,101266.81
2022-07-28T15:28:17.556Z,101277.25
2022-07-28T15:30:51.391Z,101274.25
2022-07-28T15:33:20.436Z,101257.38
2022-07-28T15:35:59.419Z,101262.28
2022-07-28T15:38:29.506Z,101269.72
2022-07-28T15:40:58.849Z,101266.00
2022-07-28T15:43:25.522Z,101262.31
2022-07-28T15:45:54.854Z,101266.34
2022-07-28T15:48:22.428Z,101260.25
2022-07-28T15:50:49.218Z,101264.81
2022-07-28T15:53:18.768Z,101244.06
2022-07-28T15:55:50.547Z,101255.88
2022-07-28T15:58:17.866Z,101267.16
2022-07-28T16:00:45.877Z,101269.84
2022-07-28T16:03:12.631Z,101251.47
2022-07-28T16:05:43.980Z,101248.47
2022-07-28T16:08:10.402Z,101268.00
2022-07-28T16:10:36.861Z,101259.09
2022-07-28T16:13:03.351Z,101259.91
2022-07-28T16:15:29.820Z,101259.91
2022-07-28T16:17:56.480Z,101261.63
2022-07-28T16:20:24.269Z,101264.47
2022-07-28T16:22:51.250Z,101263.47
2022-07-28T16:25:20.246Z,101250.81
2022-07-28T16:27:48.234Z,101260.09
2022-07-28T16:30:15.668Z,101260.41
2022-07-28T16:32:43.023Z,101259.25
2022-07-28T16:35:09.755Z,101270.00
2022-07-28T16:37:36.887Z,101265.50
2022-07-28T16:40:04.171Z,101260.09
2022-07-28T16:42:30.667Z,101261.78
2022-07-28T16:44:57.582Z,101266.19
2022-07-28T16:47:24.166Z,101262.63
2022-07-28T16:49:50.608Z,101261.78
2022-07-28T16:52:17.063Z,101257.91
2022-07-28T16:54:43.566Z,101258.78
2022-07-28T16:57:10.075Z,101258.09
2022-07-28T16:59:44.845Z,101265.84
2022-07-28T17:02:15.589Z,101265.69
2022-07-28T17:04:42.186Z,101267.34
2022-07-28T17:07:08.915Z,101259.28
2022-07-28T17:09:35.391Z,101267.03
2022-07-28T17:12:01.937Z,101264.50
2022-07-28T17:14:28.619Z,101265.84
2022-07-28T17:16:55.126Z,101235.84
2022-07-28T17:19:22.203Z,101268.56
2022-07-28T17:21:48.963Z,101254.53
2022-07-28T17:24:16.123Z,101257.91
2022-07-28T17:27:35.274Z,101254.38
2022-07-28T17:29:30.030Z,101274.09
2022-07-28T17:31:56.472Z,101274.94
2022-07-28T17:34:23.931Z,101270.56
2022-07-28T17:36:50.477Z,101270.56
2022-07-28T17:39:16.994Z,101261.47
2022-07-28T17:41:43.484Z,101274.25
2022-07-28T17:44:10.075Z,101275.97
2022-07-28T17:46:36.626Z,101275.13
2022-07-28T17:49:05.569Z,101272.59
2022-07-28T17:51:32.188Z,101282.34
2022-07-28T17:53:58.789Z,101281.34
2022-07-28T17:56:26.188Z,101261.47
2022-07-28T17:58:55.236Z,101280.16
2022-07-28T18:01:21.901Z,101266.84
2022-07-28T18:03:59.226Z,101278.31
2022-07-28T18:06:33.907Z,101256.41
2022-07-28T18:09:06.646Z,101286.53
2022-07-28T18:11:55.967Z,101284.72
2022-07-28T18:14:26.200Z,101287.41
2022-07-28T18:16:52.729Z,101291.94
2022-07-28T18:19:20.318Z,101285.72
2022-07-28T18:21:46.830Z,101294.63
2022-07-28T18:24:13.668Z,101291.94
2022-07-28T18:26:40.617Z,101292.81
2022-07-28T18:29:07.294Z,101298.00
2022-07-28T18:31:33.798Z,101295.31
2022-07-28T18:34:00.312Z,101295.16
2022-07-28T18:36:26.768Z,101297.00
2022-07-28T18:38:53.231Z,101296.16
2022-07-28T18:41:19.674Z,101304.94
2022-07-28T18:43:46.148Z,101286.88
2022-07-28T18:46:12.657Z,101298.19
2022-07-28T18:48:39.306Z,101303.91
2022-07-28T18:51:05.843Z,101298.53
2022-07-28T18:53:32.480Z,101302.25
2022-07-28T18:55:58.915Z,101293.09
2022-07-28T18:58:25.449Z,101291.44
2022-07-28T19:00:51.948Z,101311.31
2022-07-28T19:03:18.535Z,101307.78
2022-07-28T19:05:46.418Z,101314.84
2022-07-28T19:08:13.263Z,101308.09
2022-07-28T19:10:40.025Z,101324.78
2022-07-28T19:13:09.097Z,101325.81
2022-07-28T19:15:39.701Z,101323.13
2022-07-28T19:18:10.293Z,101316.66
2022-07-28T19:20:39.533Z,101310.59
2022-07-28T19:23:06.074Z,101331.00
2022-07-28T19:25:35.522Z,101325.44
2022-07-28T19:28:02.033Z,101308.59
2022-07-28T19:30:30.298Z,101324.59
2022-07-28T19:32:56.750Z,101340.94
2022-07-28T19:35:23.303Z,101342.66
2022-07-28T19:37:50.774Z,101348.03
2022-07-28T19:40:17.262Z,101332.00
2022-07-28T19:42:43.750Z,101349.03
2022-07-28T19:45:10.423Z,101359.81
2022-07-28T19:47:37.205Z,101365.19
2022-07-28T19:50:05.214Z,101363.53
2022-07-28T19:52:31.794Z,101368.03
2022-07-28T19:54:58.302Z,101367.19
2022-07-28T19:57:25.273Z,101370.72
2022-07-28T19:59:51.748Z,101374.28
2022-07-28T20:02:18.280Z,101373.28
2022-07-28T20:04:44.837Z,101383.06
2022-07-28T20:07:11.347Z,101356.38
2022-07-28T20:09:37.799Z,101384.88
2022-07-28T20:12:04.611Z,101397.38
2022-07-28T20:14:34.361Z,101379.66
2022-07-28T20:17:00.924Z,101393.16
2022-07-28T20:19:27.374Z,101370.19
2022-07-28T20:21:53.836Z,101399.91
2022-07-28T20:24:21.007Z,101409.81
2022-07-28T20:26:47.437Z,101411.69
2022-07-28T20:29:13.919Z,101406.28
2022-07-28T20:31:40.456Z,101389.09
2022-07-28T20:34:07.221Z,101406.28
2022-07-28T20:36:34.656Z,101405.44
2022-07-28T20:39:01.346Z,101378.75
2022-07-28T20:41:27.798Z,101411.69
2022-07-28T20:46:41.180Z,101423.13
2022-07-28T20:49:08.164Z,101395.97
2022-07-28T20:51:34.681Z,101414.38
2022-07-28T20:54:01.134Z,101414.22
2022-07-28T20:56:27.570Z,101412.34
2022-07-28T20:58:54.163Z,101421.28
2022-07-28T21:01:23.459Z,101403.06
2022-07-28T21:03:50.160Z,101419.41
2022-07-28T21:06:16.580Z,101420.44
2022-07-28T21:08:44.880Z,101408.63
2022-07-28T21:11:12.082Z,101405.94
2022-07-28T21:13:38.582Z,101420.59
2022-07-28T21:16:05.102Z,101425.97
2022-07-28T21:18:31.532Z,101427.84
2022-07-28T21:20:59.559Z,101429.53
2022-07-28T21:23:26.015Z,101437.63
2022-07-28T21:25:53.555Z,101421.41
2022-07-28T21:28:38.540Z,101439.31
2022-07-28T21:31:05.039Z,101443.00
2022-07-28T21:33:31.610Z,101441.31
2022-07-28T21:35:58.234Z,101419.91
2022-07-28T21:38:24.696Z,101437.09
2022-07-28T21:40:51.244Z,101441.31
2022-07-28T21:43:17.767Z,101446.00
2022-07-28T21:45:45.571Z,101440.63
2022-07-28T21:48:12.625Z,101420.69
2022-07-28T21:50:39.139Z,101442.63
2022-07-28T21:53:05.593Z,101449.88
2022-07-28T21:55:32.268Z,101433.66
2022-07-28T21:57:58.733Z,101413.56
2022-07-28T22:00:25.349Z,101445.47
2022-07-28T22:02:51.877Z,101444.63
2022-07-28T22:05:18.689Z,101447.34
2022-07-28T22:07:45.193Z,101442.59
2022-07-28T22:10:11.784Z,101448.34
2022-07-28T22:12:39.521Z,101445.66
2022-07-28T22:15:06.655Z,101451.88
2022-07-28T22:17:33.168Z,101446.66
2022-07-28T22:19:59.620Z,101443.97
2022-07-28T22:22:26.074Z,101455.75
2022-07-28T22:24:52.578Z,101441.94
2022-07-28T22:27:19.083Z,101451.19
2022-07-28T22:29:50.048Z,101453.06
2022-07-28T22:32:19.000Z,101456.75
2022-07-28T22:34:55.888Z,101456.75
2022-07-28T22:37:22.353Z,101454.22
2022-07-28T22:39:48.852Z,101465.00
2022-07-28T22:42:15.374Z,101454.03
2022-07-28T22:44:41.892Z,101437.13
2022-07-28T22:47:08.475Z,101459.91
2022-07-28T22:49:35.055Z,101462.47
2022-07-28T22:52:01.636Z,101348.59
2022-07-28T22:54:28.085Z,101459.41
2022-07-28T22:56:54.585Z,101468.88
2022-07-28T22:59:21.077Z,101471.56
2022-07-28T23:01:48.110Z,101467.50
2022-07-28T23:04:15.477Z,101465.31
2022-07-28T23:06:42.367Z,101459.03
2022-07-28T23:09:08.959Z,101463.63
2022-07-28T23:11:35.428Z,101446.19
2022-07-28T23:14:02.170Z,101462.78
2022-07-28T23:16:28.802Z,101459.41
2022-07-28T23:18:55.375Z,101454.66
2022-07-28T23:21:22.226Z,101448.59
2022-07-28T23:23:48.779Z,101463.94
2022-07-28T23:26:15.281Z,101449.75
2022-07-28T23:28:41.756Z,101457.69
2022-07-28T23:31:08.351Z,101446.94
2022-07-28T23:33:56.814Z,101451.47
2022-07-28T23:36:26.711Z,101452.47
2022-07-28T23:38:58.226Z,101451.47
2022-07-28T23:41:25.693Z,101453.34
2022-07-28T23:43:52.405Z,101452.47
2022-07-28T23:46:18.957Z,101451.63
2022-07-28T23:48:45.534Z,101443.56
2022-07-28T23:51:13.942Z,101446.25
2022-07-28T23:53:41.284Z,101455.16
2022-07-28T23:56:08.400Z,101442.72
2022-07-28T23:58:35.244Z,101441.88
